Home > Products > Valid Products > TAF

000
FTUS44 KSHV 260300 AAA
TAFELD
TAF AMD
KELD 260329Z 2603/2624 00000KT 5SM BR SKC
      TEMPO 2603/2606 2SM BR
     FM260600 00000KT 3SM BR SKC
      TEMPO 2608/2610 1SM BR
     FM261400 23005KT P6SM SKC
     FM261800 21007KT P6SM SKC=



000
FTUS44 KSHV 252300 RRA
TAFTXK
TAF
KTXK 252341Z 2600/2624 22005KT P6SM SKC
     FM261200 21003KT 5SM BR SKC
     FM261400 23005KT P6SM SKC
     FM261800 22007KT P6SM SCT250=



000
FTUS44 KSHV 252300 RRA
TAFMLU
TAF
KMLU 252341Z 2600/2624 VRB03KT P6SM SKC
     FM260600 00000KT 3SM BR SKC
      TEMPO 2608/2612 1SM BR
     FM261400 24003KT P6SM SKC
     FM261700 22007KT P6SM SCT250=



000
FTUS44 KSHV 252300 RRA
TAFLFK
TAF
KLFK 252341Z 2600/2624 00000KT P6SM SKC
      TEMPO 2609/2613 5SM BR
     FM261300 VRB03KT 3SM BR SKC
     FM261500 23003KT P6SM SKC
     FM261800 21007KT P6SM SKC=



000
FTUS44 KSHV 252300 RRA
TAFTYR
TAF
KTYR 252341Z 2600/2624 20006KT P6SM SKC
     FM261400 20008KT P6SM SKC
     FM261500 20007KT P6SM SKC=



000
FTUS44 KSHV 252300 RRA
TAFELD
TAF
KELD 252341Z 2600/2624 VRB03KT P6SM SKC
     FM261400 23005KT P6SM SKC
     FM261800 21007KT P6SM SKC=



000
FTUS44 KSHV 252300 RRA
TAFGGG
TAF
KGGG 252341Z 2600/2624 27003KT P6SM SKC
     FM261400 22007KT P6SM SKC
     FM261500 20007KT P6SM SKC=



000
FTUS44 KSHV 252300 RRA
TAFSHV
TAF
KSHV 252341Z 2600/2624 VRB03KT P6SM SKC
     FM261400 22006KT P6SM SKC
     FM261700 22007KT P6SM SCT250=



000
FTUS44 KSHV 251700
TAFTXK
TAF
KTXK 251720Z 2518/2618 24007KT P6SM SKC
     FM260000 21004KT P6SM SKC
     FM261400 23005KT P6SM SKC=



000
FTUS44 KSHV 251700
TAFSHV
TAF
KSHV 251720Z 2518/2618 24005KT P6SM SKC
     FM260000 VRB03KT P6SM SKC
     FM261400 22006KT P6SM SKC=



000
FTUS44 KSHV 251700
TAFGGG
TAF
KGGG 251720Z 2518/2618 23006KT P6SM SKC
     FM260000 18003KT P6SM SKC
     FM261400 22007KT P6SM SKC=



000
FTUS44 KSHV 251700
TAFMLU
TAF
KMLU 251720Z 2518/2618 24005KT P6SM SKC
     FM260000 00000KT P6SM SKC
     FM260600 00000KT 3SM BR SKC
      TEMPO 2608/2612 1SM BR
     FM261400 24003KT P6SM SKC=



000
FTUS44 KSHV 251700
TAFTYR
TAF
KTYR 251720Z 2518/2618 22007KT P6SM SKC
     FM260000 17004KT P6SM SKC
     FM261400 20008KT P6SM SKC=



000
FTUS44 KSHV 251700
TAFLFK
TAF
KLFK 251720Z 2518/2618 VRB03KT P6SM SKC
     FM260000 00000KT P6SM SKC
      TEMPO 2609/2613 5SM BR
     FM261400 23003KT P6SM SKC=



000
FTUS44 KSHV 251700
TAFTXK
TAF
KTXK 251720Z 2518/2618 24007KT P6SM SKC
     FM260000 21004KT P6SM SKC
     FM261400 23005KT P6SM SKC=



000
FTUS44 KSHV 251700
TAFELD
TAF
KELD 251720Z 2518/2618 24005KT P6SM SKC
     FM260000 00000KT P6SM SKC
     FM261400 23005KT P6SM SKC=



000
FTUS44 KSHV 251700
TAFELD
TAF
KELD 251720Z 2518/2618 24005KT P6SM SKC
     FM260000 00000KT P6SM SKC
     FM261400 23005KT P6SM SKC=



000
FTUS44 KSHV 251700
TAFGGG
TAF
KGGG 251720Z 2518/2618 23006KT P6SM SKC
     FM260000 18003KT P6SM SKC
     FM261400 22007KT P6SM SKC=



000
FTUS44 KSHV 251700
TAFLFK
TAF
KLFK 251720Z 2518/2618 VRB03KT P6SM SKC
     FM260000 00000KT P6SM SKC
      TEMPO 2609/2613 5SM BR
     FM261400 23003KT P6SM SKC=



000
FTUS44 KSHV 251700
TAFSHV
TAF
KSHV 251720Z 2518/2618 24005KT P6SM SKC
     FM260000 VRB03KT P6SM SKC
     FM261400 22006KT P6SM SKC=



000
FTUS44 KSHV 251700
TAFTYR
TAF
KTYR 251720Z 2518/2618 22007KT P6SM SKC
     FM260000 17004KT P6SM SKC
     FM261400 20008KT P6SM SKC=



000
FTUS44 KSHV 251700
TAFMLU
TAF
KMLU 251720Z 2518/2618 24005KT P6SM SKC
     FM260000 00000KT P6SM SKC
     FM260600 00000KT 3SM BR SKC
      TEMPO 2608/2612 1SM BR
     FM261400 24003KT P6SM SKC=



000
FTUS44 KSHV 251100
TAFTYR
TAF
KTYR 251120Z 2512/2612 19005KT P6SM SKC
     FM251500 22007KT P6SM SKC
     FM251800 22007KT P6SM FEW050
     FM260000 17004KT P6SM SKC=



000
FTUS44 KSHV 251100
TAFLFK
TAF
KLFK 251120Z 2512/2612 VRB03KT P6SM SKC
     FM251500 24004KT P6SM SKC
     FM260000 00000KT P6SM SKC=



000
FTUS44 KSHV 251100
TAFTXK
TAF
KTXK 251120Z 2512/2612 23004KT P6SM SKC
     FM251500 24006KT P6SM SKC
     FM251800 24007KT P6SM FEW050
     FM260000 21004KT P6SM SKC=



000
FTUS44 KSHV 251100
TAFGGG
TAF
KGGG 251120Z 2512/2612 19005KT P6SM SKC
     FM251500 24006KT P6SM SKC
     FM251800 24006KT P6SM FEW050
     FM260000 19003KT P6SM SKC=



000
FTUS44 KSHV 251100
TAFMLU
TAF
KMLU 251120Z 2512/2612 00000KT P6SM SKC
      TEMPO 2512/2514 3SM BR
     FM251500 26005KT P6SM SKC
     FM252000 26005KT P6SM FEW050
     FM260000 00000KT P6SM SKC=



000
FTUS44 KSHV 251100
TAFELD
TAF
KELD 251120Z 2512/2612 00000KT P6SM SKC
     FM251400 25005KT P6SM SKC
     FM251800 25006KT P6SM FEW050
     FM260000 00000KT P6SM SKC=



000
FTUS44 KSHV 251100
TAFSHV
TAF
KSHV 251120Z 2512/2612 00000KT P6SM SKC
     FM251500 25005KT P6SM SKC
     FM251800 25005KT P6SM FEW050
     FM260000 VRB03KT P6SM SKC=



000
FTUS44 KSHV 251100
TAFTXK
TAF
KTXK 251120Z 2512/2612 23004KT P6SM SKC
     FM251500 24006KT P6SM SKC
     FM251800 24007KT P6SM FEW050
     FM260000 21004KT P6SM SKC=



000
FTUS44 KSHV 251100
TAFELD
TAF
KELD 251120Z 2512/2612 00000KT P6SM SKC
     FM251400 25005KT P6SM SKC
     FM251800 25006KT P6SM FEW050
     FM260000 00000KT P6SM SKC=



000
FTUS44 KSHV 251100
TAFMLU
TAF
KMLU 251120Z 2512/2612 00000KT P6SM SKC
      TEMPO 2512/2514 3SM BR
     FM251500 26005KT P6SM SKC
     FM252000 26005KT P6SM FEW050
     FM260000 00000KT P6SM SKC=



000
FTUS44 KSHV 251100
TAFSHV
TAF
KSHV 251120Z 2512/2612 00000KT P6SM SKC
     FM251500 25005KT P6SM SKC
     FM251800 25005KT P6SM FEW050
     FM260000 VRB03KT P6SM SKC=



000
FTUS44 KSHV 251100
TAFGGG
TAF
KGGG 251120Z 2512/2612 19005KT P6SM SKC
     FM251500 24006KT P6SM SKC
     FM251800 24006KT P6SM FEW050
     FM260000 19003KT P6SM SKC=



000
FTUS44 KSHV 251100
TAFLFK
TAF
KLFK 251120Z 2512/2612 VRB03KT P6SM SKC
     FM251500 24004KT P6SM SKC
     FM260000 00000KT P6SM SKC=



000
FTUS44 KSHV 251100
TAFTYR
TAF
KTYR 251120Z 2512/2612 19005KT P6SM SKC
     FM251500 22007KT P6SM SKC
     FM251800 22007KT P6SM FEW050
     FM260000 17004KT P6SM SKC=



000
FTUS44 KSHV 250800 AAA
TAFELD
TAF AMD
KELD 250812Z 2508/2606 00000KT P6SM SKC
      TEMPO 2511/2514 4SM BR
     FM251400 25005KT P6SM FEW050
     FM260000 00000KT P6SM SKC=



000
FTUS44 KSHV 250500
TAFGGG
TAF
KGGG 250532Z 2506/2606 17003KT P6SM SKC
     FM251500 24006KT P6SM FEW050
     FM260000 18003KT P6SM SKC=



000
FTUS44 KSHV 250500
TAFSHV
TAF
KSHV 250532Z 2506/2606 00000KT P6SM SKC
     FM251500 25005KT P6SM FEW050
     FM260000 00000KT P6SM SKC=



000
FTUS44 KSHV 250500
TAFMLU
TAF
KMLU 250532Z 2506/2606 00000KT 2SM BR SKC
      TEMPO 2506/2508 1/2SM FG VV002
     FM250800 00000KT 1 1/2SM BR SKC
      TEMPO 2508/2512 1/2SM FG VV002
     FM251400 26005KT P6SM SKC
     FM252000 26005KT P6SM FEW050
     FM260000 00000KT P6SM SKC=



000
FTUS44 KSHV 250500
TAFTYR
TAF
KTYR 250532Z 2506/2606 17004KT P6SM SKC
     FM251500 22007KT P6SM FEW050
     FM260000 17004KT P6SM SKC=



000
FTUS44 KSHV 250500
TAFTXK
TAF
KTXK 250532Z 2506/2606 21003KT P6SM SKC
      TEMPO 2510/2513 5SM BR
     FM251500 24007KT P6SM FEW050
     FM260000 21004KT P6SM SKC=



000
FTUS44 KSHV 250500
TAFELD
TAF
KELD 250532Z 2506/2606 00000KT 6SM BR SKC
      TEMPO 2506/2508 2SM BR
     FM250800 00000KT 6SM BR SKC
      TEMPO 2508/2512 1SM BR
     FM251400 25005KT P6SM FEW050
     FM260000 00000KT P6SM SKC=



000
FTUS44 KSHV 250500
TAFLFK
TAF
KLFK 250532Z 2506/2606 00000KT P6SM SKC
      TEMPO 2508/2512 5SM BR
     FM251500 24004KT P6SM SKC
     FM260000 00000KT P6SM SKC=



000
FTUS44 KSHV 242300
TAFMLU
TAF
KMLU 242321Z 2500/2524 00000KT P6SM BKN250
      TEMPO 2508/2512 3SM BR
     FM251500 26004KT P6SM SKC=



000
FTUS44 KSHV 242300
TAFLFK
TAF
KLFK 242321Z 2500/2524 00000KT P6SM SCT250
      TEMPO 2510/2512 5SM BR
     FM251500 23004KT P6SM SKC=



000
FTUS44 KSHV 242300
TAFTXK
TAF
KTXK 242321Z 2500/2524 VRB03KT P6SM BKN250
     FM250600 00000KT P6SM SCT250
     FM251500 24006KT P6SM SCT050=



000
FTUS44 KSHV 242300
TAFTYR
TAF
KTYR 242321Z 2500/2524 16004KT P6SM SCT250
     FM251500 22008KT P6SM SKC=



000
FTUS44 KSHV 242300
TAFELD
TAF
KELD 242321Z 2500/2524 00000KT P6SM BKN250
     FM251500 25005KT P6SM SCT050=



000
FTUS44 KSHV 242300
TAFSHV
TAF
KSHV 242321Z 2500/2524 00000KT P6SM BKN250
     FM250600 00000KT P6SM SCT250
     FM251500 25005KT P6SM SCT050=



000
FTUS44 KSHV 242300
TAFGGG
TAF
KGGG 242321Z 2500/2524 VRB03KT P6SM SCT250
     FM251500 24007KT P6SM SKC=



000
FTUS44 KSHV 242000 AAA
TAFTXK
TAF AMD
KTXK 242043Z 2421/2518 VRB03KT P6SM OVC250
     FM251500 24006KT P6SM SCT250=



000
FTUS44 KSHV 241700
TAFMLU
TAF
KMLU 241723Z 2418/2518 VRB04KT P6SM SKC
     FM250000 00000KT P6SM SKC
     FM251500 26004KT P6SM SKC=



000
FTUS44 KSHV 241700
TAFELD
TAF
KELD 241723Z 2418/2518 VRB03KT P6SM SKC
     FM250000 00000KT P6SM SCT250
     FM251500 24005KT P6SM SKC=



000
FTUS44 KSHV 241700
TAFTXK
TAF
KTXK 241723Z 2418/2518 VRB03KT P6SM SCT250
     FM251500 24006KT P6SM SCT250=



000
FTUS44 KSHV 241700
TAFLFK
TAF
KLFK 241723Z 2418/2518 VRB04KT P6SM SKC
     FM250000 00000KT P6SM SKC
     FM251500 22003KT P6SM SKC=



000
FTUS44 KSHV 241700
TAFGGG
TAF
KGGG 241723Z 2418/2518 VRB03KT P6SM SKC
     FM251500 23006KT P6SM SKC=



000
FTUS44 KSHV 241700
TAFSHV
TAF
KSHV 241723Z 2418/2518 VRB04KT P6SM SCT250
     FM250000 00000KT P6SM SKC
     FM251500 25005KT P6SM SKC=



000
FTUS44 KSHV 241700
TAFTYR
TAF
KTYR 241723Z 2418/2518 VRB04KT P6SM FEW050
     FM250000 16004KT P6SM SKC
     FM251500 22008KT P6SM SKC=



000
FTUS44 KSHV 241100
TAFTXK
TAF
KTXK 241129Z 2412/2512 00000KT P6SM SKC
      TEMPO 2412/2414 5SM BR
     FM241500 VRB03KT P6SM FEW050
     FM250000 VRB03KT P6SM SCT250=



000
FTUS44 KSHV 241100
TAFLFK
TAF
KLFK 241129Z 2412/2512 00000KT P6SM SKC
     FM241500 VRB04KT P6SM SCT050
     FM250000 00000KT P6SM SKC=



000
FTUS44 KSHV 241100
TAFTYR
TAF
KTYR 241129Z 2412/2512 15003KT P6SM BKN050
     FM241700 14004KT P6SM SCT050
     FM250000 14003KT P6SM SKC=



000
FTUS44 KSHV 241100
TAFMLU
TAF
KMLU 241129Z 2412/2512 00000KT 1/2SM FG VV002
      TEMPO 2413/2414 3SM BR FEW002
     FM241400 VRB04KT P6SM SKC
     FM250000 00000KT P6SM FEW250=



000
FTUS44 KSHV 241100
TAFGGG
TAF
KGGG 241129Z 2412/2512 00000KT P6SM FEW050
     FM241400 VRB03KT P6SM SCT050
     FM250000 VRB03KT P6SM SKC=



000
FTUS44 KSHV 241100
TAFELD
TAF
KELD 241129Z 2412/2512 00000KT P6SM SKC
     FM241600 VRB03KT P6SM SKC
     FM250000 00000KT P6SM SCT250=



000
FTUS44 KSHV 241100
TAFSHV
TAF
KSHV 241129Z 2412/2512 00000KT P6SM SKC
     FM241500 VRB04KT P6SM FEW050
     FM250000 00000KT P6SM FEW250=



000
FTUS44 KSHV 240500
TAFTYR
TAF
KTYR 240538Z 2406/2506 12003KT P6SM SKC
      TEMPO 2411/2413 5SM BR
     FM241400 14004KT P6SM SKC=



000
FTUS44 KSHV 240500
TAFTXK
TAF
KTXK 240538Z 2406/2506 00000KT P6SM SKC
      TEMPO 2408/2412 4SM BR
     FM241200 00000KT 4SM BR SKC
     FM241300 VRB03KT P6SM SKC
     FM250100 00000KT P6SM SKC=



000
FTUS44 KSHV 240500
TAFSHV
TAF
KSHV 240538Z 2406/2506 00000KT P6SM SKC
      TEMPO 2409/2413 3SM BR
     FM241400 VRB04KT P6SM SKC
     FM250100 00000KT P6SM SKC=



000
FTUS44 KSHV 240500
TAFMLU
TAF
KMLU 240538Z 2406/2506 00000KT 3SM BR FEW002
      TEMPO 2406/2410 1/4SM FG VV001
     FM241000 00000KT 1/4SM FG VV001
     FM241400 VRB05KT P6SM SKC
     FM250100 00000KT P6SM SKC=



000
FTUS44 KSHV 240500
TAFLFK
TAF
KLFK 240538Z 2406/2506 00000KT P6SM SKC
      TEMPO 2408/2410 3SM BR
     FM241000 00000KT 4SM BR SKC
      TEMPO 2410/2413 1SM BR
     FM241400 VRB04KT P6SM SKC
     FM250100 00000KT P6SM SKC=



000
FTUS44 KSHV 240500
TAFELD
TAF
KELD 240538Z 2406/2506 00000KT P6SM SKC
      TEMPO 2408/2412 2SM BR
     FM241400 VRB04KT P6SM SKC
     FM250100 00000KT P6SM SKC=



000
FTUS44 KSHV 240500
TAFGGG
TAF
KGGG 240538Z 2406/2506 00000KT P6SM SKC
      TEMPO 2410/2413 3SM BR
     FM241400 VRB04KT P6SM SKC=



000
FTUS44 KSHV 240300 AAA
TAFMLU
TAF AMD
KMLU 240300Z 2403/2424 00000KT 3SM BR SKC
      TEMPO 2403/2406 1/4SM FG VV002
     FM240600 00000KT 1/4SM FG VV002
      TEMPO 2413/2414 3SM BR SKC
     FM241400 VRB05KT P6SM SKC=



000
FTUS44 KSHV 240300 AAA
TAFMLU
TAF AMD
KMLU 240300Z 2403/2424 00000KT 3SM BR SKC
      TEMPO 2403/2406 1/4SM FG VV002
     FM240600 00000KT 1/4SM FG VV002
      TEMPO 2413/2414 3SM BR SKC
     FM241400 VRB05KT P6SM SKC=



000
FTUS44 KSHV 232300
TAFLFK
TAF
KLFK 232320Z 2400/2424 00000KT P6SM SKC
     FM241400 VRB04KT P6SM SKC=



000
FTUS44 KSHV 232300
TAFMLU
TAF
KMLU 232320Z 2400/2424 VRB03KT P6SM SCT150 SCT250
     FM241500 VRB05KT P6SM SKC=



000
FTUS44 KSHV 232300
TAFGGG
TAF
KGGG 232320Z 2400/2424 VRB03KT P6SM SCT050
     FM241200 VRB03KT P6SM SCT040
     FM241700 VRB04KT P6SM SKC=



000
FTUS44 KSHV 232300
TAFSHV
TAF
KSHV 232320Z 2400/2424 VRB03KT P6SM SKC
     FM240300 00000KT P6SM SCT050
     FM241400 VRB05KT P6SM SKC=



000
FTUS44 KSHV 232300
TAFELD
TAF
KELD 232320Z 2400/2424 VRB03KT P6SM SCT050 SCT120
     FM241500 VRB03KT P6SM SKC=



000
FTUS44 KSHV 232300
TAFTXK
TAF
KTXK 232320Z 2400/2424 VRB03KT P6SM SCT050 SCT250
     FM241500 VRB04KT P6SM SKC=



000
FTUS44 KSHV 232300
TAFTYR
TAF
KTYR 232320Z 2400/2424 VRB03KT P6SM SCT050
     FM241200 VRB03KT P6SM SCT040
     FM241700 VRB04KT P6SM SKC=



000
FTUS44 KSHV 231700 RRA
TAFLFK
TAF
KLFK 231743Z 2318/2418 06004KT P6SM BKN110
     FM232100 06003KT P6SM SKC=



000
FTUS44 KSHV 231700 RRA
TAFSHV
TAF
KSHV 231743Z 2318/2418 04005KT P6SM BKN150 OVC270
     FM232200 05004KT P6SM BKN080
     FM240300 VRB03KT P6SM BKN070
     FM240800 00000KT P6SM BKN050=



000
FTUS44 KSHV 231700 RRA
TAFTYR
TAF
KTYR 231743Z 2318/2418 VRB05KT P6SM BKN110
     FM232100 08004KT P6SM SCT050 BKN070
     FM240000 09003KT P6SM BKN050
     FM241500 17004KT P6SM BKN045=



000
FTUS44 KSHV 231700 RRA
TAFGGG
TAF
KGGG 231743Z 2318/2418 VRB05KT P6SM SCT110 BKN250
     FM232200 05004KT P6SM BKN080
     FM240300 VRB03KT P6SM BKN070
     FM240800 00000KT P6SM BKN050=



000
FTUS44 KSHV 231700 RRA
TAFELD
TAF
KELD 231743Z 2318/2418 04004KT P6SM BKN150 OVC270
     FM240000 VRB03KT P6SM BKN100
     FM241500 03004KT P6SM BKN050=



000
FTUS44 KSHV 231700 RRA
TAFTXK
TAF
KTXK 231743Z 2318/2418 VRB04KT P6SM SCT150 BKN270
     FM232200 05004KT P6SM BKN080
     FM240300 VRB03KT P6SM BKN070
     FM240800 00000KT P6SM BKN040=



000
FTUS44 KSHV 231700 RRA
TAFMLU
TAF
KMLU 231743Z 2318/2418 04004KT P6SM BKN150 OVC270
     FM240000 VRB03KT P6SM BKN100
     FM241500 03004KT P6SM BKN050=



000
FTUS44 KSHV 231700 RRA
TAFTYR
TAF
KTYR 231743Z 2318/2418 VRB05KT P6SM BKN110
     FM232100 08004KT P6SM SCT050 BKN070
     FM240000 09003KT P6SM BKN050
     FM241500 17004KT P6SM BKN045=



000
FTUS44 KSHV 231700 RRA
TAFGGG
TAF
KGGG 231743Z 2318/2418 VRB05KT P6SM SCT110 BKN250
     FM232200 05004KT P6SM BKN080
     FM240300 VRB03KT P6SM BKN070
     FM240800 00000KT P6SM BKN050=



000
FTUS44 KSHV 231700 RRA
TAFSHV
TAF
KSHV 231743Z 2318/2418 04005KT P6SM BKN150 OVC270
     FM232200 05004KT P6SM BKN080
     FM240300 VRB03KT P6SM BKN070
     FM240800 00000KT P6SM BKN050=



000
FTUS44 KSHV 231700 RRA
TAFLFK
TAF
KLFK 231743Z 2318/2418 06004KT P6SM BKN110
     FM232100 06003KT P6SM SKC=



000
FTUS44 KSHV 231700 RRA
TAFMLU
TAF
KMLU 231743Z 2318/2418 04004KT P6SM BKN150 OVC270
     FM240000 VRB03KT P6SM BKN100
     FM241500 03004KT P6SM BKN050=



000
FTUS44 KSHV 231700 RRA
TAFTXK
TAF
KTXK 231743Z 2318/2418 VRB04KT P6SM SCT150 BKN270
     FM232200 05004KT P6SM BKN080
     FM240300 VRB03KT P6SM BKN070
     FM240800 00000KT P6SM BKN040=



000
FTUS44 KSHV 231700 RRA
TAFELD
TAF
KELD 231743Z 2318/2418 04004KT P6SM BKN150 OVC270
     FM240000 VRB03KT P6SM BKN100
     FM241500 03004KT P6SM BKN050=



000
FTUS44 KSHV 231100
TAFSHV
TAF
KSHV 231136Z 2312/2412 10004KT P6SM SCT150 BKN250
     FM231800 08005KT P6SM FEW150
     FM240000 05004KT P6SM SKC=



000
FTUS44 KSHV 231100
TAFGGG
TAF
KGGG 231136Z 2312/2412 00000KT P6SM SKC
     FM231400 10004KT P6SM SCT110 BKN250
     FM232100 08004KT P6SM SKC=



000
FTUS44 KSHV 231100
TAFMLU
TAF
KMLU 231136Z 2312/2412 04005KT P6SM SKC
     FM231500 04004KT P6SM SCT150 BKN250
     FM240100 03003KT P6SM SKC=



000
FTUS44 KSHV 231100
TAFTYR
TAF
KTYR 231136Z 2312/2412 00000KT P6SM SKC
     FM231400 10004KT P6SM BKN110
     FM232100 08004KT P6SM SKC=



000
FTUS44 KSHV 231100
TAFTXK
TAF
KTXK 231136Z 2312/2412 00000KT P6SM SCT150 BKN250
     FM231900 08004KT P6SM FEW150
     FM240200 11003KT P6SM SKC=



000
FTUS44 KSHV 231100
TAFELD
TAF
KELD 231136Z 2312/2412 05006KT P6SM SKC
     FM231400 05004KT P6SM SCT150 BKN250
     FM231800 05004KT P6SM FEW150
     FM240000 03003KT P6SM SKC=



000
FTUS44 KSHV 231100
TAFLFK
TAF
KLFK 231136Z 2312/2412 05004KT P6SM SKC
     FM231500 06004KT P6SM BKN110
     FM232100 06003KT P6SM SKC=



000
FTUS44 KSHV 230500
TAFLFK
TAF
KLFK 230536Z 2306/2406 07004KT P6SM SKC
     FM230800 06004KT P6SM SCT150 OVC250
     FM231500 06004KT P6SM FEW150
     FM240000 06003KT P6SM SKC=



000
FTUS44 KSHV 230500
TAFTXK
TAF
KTXK 230536Z 2306/2406 08003KT P6SM SCT150 OVC250
     FM231800 08004KT P6SM FEW150
     FM240200 10003KT P6SM SKC=



000
FTUS44 KSHV 230500
TAFTYR
TAF
KTYR 230536Z 2306/2406 10005KT P6SM SCT150 OVC250
     FM231500 10004KT P6SM FEW150
     FM240000 10004KT P6SM SKC=



000
FTUS44 KSHV 230500
TAFSHV
TAF
KSHV 230536Z 2306/2406 06004KT P6SM SCT250
     FM230900 05004KT P6SM SCT150 BKN250
     FM231800 04004KT P6SM FEW150
     FM240000 03004KT P6SM SKC=



000
FTUS44 KSHV 230500
TAFGGG
TAF
KGGG 230536Z 2306/2406 07005KT P6SM SCT150 OVC250
     FM231500 06004KT P6SM FEW150
     FM240100 10004KT P6SM SKC=



000
FTUS44 KSHV 230500
TAFELD
TAF
KELD 230536Z 2306/2406 00000KT P6SM SKC
     FM231100 00000KT P6SM SCT250
     FM231400 05004KT P6SM SCT150 BKN250
     FM231800 05004KT P6SM FEW150
     FM240000 03003KT P6SM SKC=



000
FTUS44 KSHV 230500
TAFMLU
TAF
KMLU 230536Z 2306/2406 04004KT P6SM SKC
     FM231200 04004KT P6SM SCT250
     FM231500 04004KT P6SM SCT150 BKN250
     FM231800 04004KT P6SM FEW150
     FM240100 03003KT P6SM SKC=



    US Dept of Commerce
    National Oceanic and Atmospheric Administration
    National Weather Service
    1325 East West Highway
    Silver Spring, MD 20910
    Page Author: NWS Internet Services Team
Disclaimer
Information Quality
Credits
Glossary
Privacy Policy
Freedom of Information Act (FOIA)
About Us
Career Opportunities